Time;durP1;ratioP1;P1;durP2;ratioP2;P2;SDS_P1;SDS_P2;PMS_P1;PMS_P2;Temp;Humidity;BMP_temperature;BMP_pressure;BME280_temperature;BME280_humidity;BME280_pressure;Samples;Min_cycle;Max_cycle;Signal;HPM_P1;HPM_P2
2022/09/22 00:01:02;;;;;;;26.30;8.82;;;;;;;9.83;95.00;102424.16;4989374;28;20446;-79
2022/09/22 00:03:41;;;;;;;18.73;7.78;;;;;;;9.81;94.94;102415.38;5002823;28;20034;-79
2022/09/22 00:06:19;;;;;;;20.42;7.82;;;;;;;9.77;94.43;102413.97;4977688;28;20038;-79
2022/09/22 00:08:47;;;;;;;;;;;;;;;9.76;95.01;102414.94;5012384;28;20477;-79
2022/09/22 00:11:18;;;;;;;18.55;7.45;;;;;;;9.74;95.25;102414.25;4995103;28;19925;-79
2022/09/22 00:13:58;;;;;;;24.35;7.93;;;;;;;9.74;95.38;102410.69;5011740;28;20532;-79
2022/09/22 00:16:28;;;;;;;24.48;8.85;;;;;;;9.71;95.57;102414.50;5010174;28;20069;-80
2022/09/22 00:18:54;;;;;;;22.40;7.78;;;;;;;9.70;95.60;102406.59;4995220;28;20034;-80
2022/09/22 00:21:21;;;;;;;24.50;8.15;;;;;;;9.68;95.65;102406.72;4985895;28;20388;-80
2022/09/22 00:23:48;;;;;;;24.50;8.97;;;;;;;9.69;96.05;102411.13;5011787;28;20645;-80
2022/09/22 00:26:16;;;;;;;29.13;8.02;;;;;;;9.67;96.06;102407.72;4996173;28;20364;-79
2022/09/22 00:28:44;;;;;;;29.92;9.52;;;;;;;9.63;95.98;102399.06;5015160;28;20029;-80
2022/09/22 00:31:12;;;;;;;28.00;8.63;;;;;;;9.63;96.00;102407.13;5000985;28;20115;-80
2022/09/22 00:33:39;;;;;;;21.52;7.93;;;;;;;9.63;95.94;102403.59;5013672;28;20033;-80
2022/09/22 00:36:05;;;;;;;24.20;8.73;;;;;;;9.57;95.98;102404.16;4995612;28;20026;-80
2022/09/22 00:38:30;;;;;;;27.50;9.45;;;;;;;9.57;95.86;102404.16;4994661;28;20556;-80
2022/09/22 00:40:56;;;;;;;20.02;8.52;;;;;;;9.58;95.76;102397.78;5007578;28;20030;-80
2022/09/22 00:43:27;;;;;;;21.13;7.18;;;;;;;9.58;96.03;102404.00;5012722;28;20030;-80
2022/09/22 00:45:59;;;;;;;16.60;7.60;;;;;;;9.55;95.51;102398.06;4997458;28;20034;-80
2022/09/22 00:48:25;;;;;;;16.58;8.43;;;;;;;9.53;95.58;102400.03;4975422;28;20386;-80
2022/09/22 00:50:52;;;;;;;23.25;8.27;;;;;;;9.50;95.57;102394.94;4993292;28;20026;-80
2022/09/22 00:53:19;;;;;;;19.85;8.20;;;;;;;9.47;95.68;102392.53;4989044;28;20021;-80
2022/09/22 00:55:50;;;;;;;25.30;8.40;;;;;;;9.45;95.33;102388.16;4980449;28;20045;-80
2022/09/22 00:58:19;;;;;;;16.33;8.07;;;;;;;9.44;95.03;102381.06;4995898;28;20113;-80
2022/09/22 01:00:44;;;;;;;25.38;8.25;;;;;;;9.43;95.67;102387.44;5005053;28;20037;-80
2022/09/22 01:03:16;;;;;;;27.17;7.70;;;;;;;9.42;95.77;102377.66;5019085;28;20107;-80
2022/09/22 01:05:45;;;;;;;20.25;8.48;;;;;;;9.43;95.52;102381.22;4998197;28;20176;-80
2022/09/22 01:08:12;;;;;;;30.15;8.45;;;;;;;9.41;95.53;102381.34;4998101;28;20052;-80
2022/09/22 01:10:38;;;;;;;16.63;7.80;;;;;;;9.38;95.38;102376.22;4997321;28;20025;-79
2022/09/22 01:13:42;;;;;;;19.73;8.02;;;;;;;9.36;95.68;102370.13;5015905;28;20033;-79
2022/09/22 01:16:25;;;;;;;26.20;8.35;;;;;;;9.34;95.53;102372.09;5014756;28;20030;-80
2022/09/22 01:19:15;;;;;;;25.58;8.32;;;;;;;9.32;95.87;102368.72;5019504;28;20033;-80
2022/09/22 01:21:50;;;;;;;19.92;7.97;;;;;;;9.31;95.46;102369.69;5003525;28;20443;-80
2022/09/22 01:24:50;;;;;;;26.33;8.23;;;;;;;9.27;95.36;102360.22;4998030;28;20029;-80
2022/09/22 01:27:47;;;;;;;31.67;8.45;;;;;;;9.24;95.56;102357.78;5016676;28;20498;-80
2022/09/22 01:30:21;;;;;;;23.05;7.72;;;;;;;9.23;96.06;102350.72;5000287;28;20359;-80
2022/09/22 01:33:05;;;;;;;22.35;7.50;;;;;;;9.20;95.94;102353.69;4999105;28;20052;-79
2022/09/22 01:35:37;;;;;;;20.80;8.48;;;;;;;9.17;96.28;102354.81;4999953;28;20034;-80
2022/09/22 01:38:09;;;;;;;22.42;8.70;;;;;;;9.16;96.25;102355.81;5001358;28;20049;-80
2022/09/22 01:40:51;;;;;;;17.75;7.75;;;;;;;9.12;96.23;102346.31;5001308;28;20080;-79
2022/09/22 01:43:34;;;;;;;18.40;8.02;;;;;;;9.12;96.76;102342.78;5020672;28;20030;-79
2022/09/22 01:46:05;;;;;;;26.70;7.47;;;;;;;9.10;96.64;102345.59;5017059;28;20034;-79
2022/09/22 01:48:32;;;;;;;21.65;8.18;;;;;;;9.07;96.91;102340.50;4998105;28;20022;-79
2022/09/22 01:51:04;;;;;;;21.45;8.20;;;;;;;9.04;96.41;102334.56;4997370;28;20026;-80
2022/09/22 01:53:34;;;;;;;22.80;7.55;;;;;;;9.04;96.33;102334.56;5007698;28;20493;-80
2022/09/22 01:56:04;;;;;;;28.23;8.35;;;;;;;9.04;96.61;102329.19;4997063;28;20050;-80
2022/09/22 01:58:43;;;;;;;23.38;8.57;;;;;;;9.05;96.31;102333.56;4997486;28;20025;-80
2022/09/22 02:01:18;;;;;;;22.10;7.68;;;;;;;9.06;96.69;102327.19;4996542;28;20114;-80
2022/09/22 02:04:07;;;;;;;27.35;8.43;;;;;;;9.04;97.10;102330.03;4980693;28;20037;-80
2022/09/22 02:06:36;;;;;;;23.40;7.90;;;;;;;9.02;96.75;102332.84;5056443;23;20084;-42
2022/09/22 02:09:23;;;;;;;23.80;8.15;;;;;;;9.03;97.04;102331.03;4988520;28;20041;-42
2022/09/22 02:11:48;;;;;;;14.70;7.00;;;;;;;9.01;97.31;102325.78;5007329;28;20112;-41
2022/09/22 02:14:14;;;;;;;19.00;7.50;;;;;;;8.99;96.72;102327.72;5013874;28;20521;-41
2022/09/22 02:16:39;;;;;;;20.45;7.88;;;;;;;8.99;96.70;102321.53;5013831;28;20030;-42
2022/09/22 02:19:15;;;;;;;22.40;8.15;;;;;;;8.99;96.52;102325.06;5013452;28;20026;-42
2022/09/22 02:21:43;;;;;;;25.17;7.90;;;;;;;8.97;96.44;102318.97;4996366;28;20045;-42
2022/09/22 02:24:31;;;;;;;23.27;8.23;;;;;;;8.96;96.57;102327.16;4996428;28;20436;-42
2022/09/22 02:26:59;;;;;;;24.88;8.95;;;;;;;8.97;96.36;102318.13;5014754;28;20061;-42
2022/09/22 02:29:30;;;;;;;23.13;8.20;;;;;;;8.94;96.05;102319.22;4996640;28;20075;-41
2022/09/22 02:31:57;;;;;;;22.80;8.20;;;;;;;8.94;96.04;102310.34;4996998;28;20036;-40
2022/09/22 02:34:22;;;;;;;20.13;8.73;;;;;;;8.92;96.12;102313.13;5014596;28;20045;-42
2022/09/22 02:37:26;;;;;;;19.58;8.27;;;;;;;8.90;95.99;102317.81;5013612;28;20022;-41
2022/09/22 02:40:17;;;;;;;27.63;8.82;;;;;;;8.87;96.09;102312.69;4993892;28;20053;-43
2022/09/22 02:42:46;;;;;;;20.95;8.25;;;;;;;8.87;95.99;102310.00;4994708;28;20550;-42
2022/09/22 02:45:18;;;;;;;21.85;7.93;;;;;;;8.83;96.03;102311.28;5013326;28;20079;-41
2022/09/22 02:48:08;;;;;;;18.58;8.35;;;;;;;8.83;96.49;102305.06;4995787;28;20029;-43
2022/09/22 02:50:34;;;;;;;24.33;9.05;;;;;;;8.81;96.58;102301.66;5008097;28;20030;-43
2022/09/22 02:53:03;;;;;;;20.88;8.25;;;;;;;8.79;96.39;102301.78;4996080;28;20469;-42
2022/09/22 02:55:28;;;;;;;;;;;;;;;8.75;96.31;102292.31;5013812;28;20029;-42
2022/09/22 02:57:53;;;;;;;19.05;7.50;;;;;;;8.71;95.98;102291.72;5013087;28;19924;-43
2022/09/22 03:00:19;;;;;;;18.50;7.80;;;;;;;8.69;96.30;102295.50;5013044;28;20057;-43
2022/09/22 03:02:44;;;;;;;22.98;8.13;;;;;;;8.67;95.89;102290.28;5012871;28;20029;-42
2022/09/22 03:05:09;;;;;;;16.33;7.40;;;;;;;8.66;95.97;102295.78;5012871;28;20065;-40
2022/09/22 03:07:35;;;;;;;27.00;8.20;;;;;;;8.66;95.96;102293.09;5012606;28;20464;-42
2022/09/22 03:10:01;;;;;;;19.23;7.78;;;;;;;8.65;96.19;102299.47;5013179;28;20044;-42
2022/09/22 03:12:26;;;;;;;19.92;7.32;;;;;;;8.63;96.13;102291.53;5013164;28;20026;-42
2022/09/22 03:14:51;;;;;;;24.70;8.60;;;;;;;8.59;95.72;102291.97;5012087;28;20144;-40
2022/09/22 03:17:17;;;;;;;21.60;9.45;;;;;;;8.56;95.73;102293.91;5011876;28;20050;-43
2022/09/22 03:19:42;;;;;;;18.67;8.93;;;;;;;8.56;96.20;102277.81;5012333;28;20034;-43
2022/09/22 03:22:08;;;;;;;21.73;8.55;;;;;;;8.56;96.61;102283.19;5012507;28;20030;-42
2022/09/22 03:24:33;;;;;;;22.83;8.52;;;;;;;8.56;96.53;102277.81;5011845;28;20026;-43
2022/09/22 03:26:58;;;;;;;24.73;9.57;;;;;;;8.54;96.80;102282.47;5012734;28;20065;-42
2022/09/22 03:29:23;;;;;;;23.48;8.85;;;;;;;8.53;97.02;102283.47;5012262;28;20555;-41
2022/09/22 03:31:49;;;;;;;24.17;9.63;;;;;;;8.56;97.02;102276.97;5012654;28;20036;-42
2022/09/22 03:34:14;;;;;;;24.88;9.90;;;;;;;8.54;97.23;102284.31;4995985;28;20046;-42
2022/09/22 03:36:40;;;;;;;23.23;8.57;;;;;;;8.52;97.09;102280.91;5013587;28;20116;-42
2022/09/22 03:39:05;;;;;;;22.90;8.95;;;;;;;8.51;96.90;102280.03;5012848;28;20325;-42
2022/09/22 03:41:30;;;;;;;23.08;9.30;;;;;;;8.48;96.63;102284.84;5013087;28;20034;-43
2022/09/22 03:43:57;;;;;;;24.00;9.77;;;;;;;8.47;96.58;102275.91;5000039;28;20031;-40
2022/09/22 03:46:22;;;;;;;27.10;9.85;;;;;;;8.46;96.67;102279.59;5009591;28;20446;-43
2022/09/22 03:48:47;;;;;;;28.20;9.75;;;;;;;8.47;96.84;102277.75;5011192;28;20040;-42
2022/09/22 03:51:13;;;;;;;26.38;9.45;;;;;;;8.47;96.88;102277.75;4996936;28;20060;-43
2022/09/22 03:53:38;;;;;;;32.65;10.68;;;;;;;8.45;96.58;102274.34;4995830;28;20022;-42
2022/09/22 03:56:08;;;;;;;29.00;10.00;;;;;;;8.41;96.26;102268.41;5006507;28;20096;-42
2022/09/22 03:58:35;;;;;;;24.17;9.95;;;;;;;8.45;96.41;102268.97;4991779;28;20489;-41
2022/09/22 04:01:00;;;;;;;31.92;9.70;;;;;;;8.39;96.42;102267.69;5008068;28;20038;-42
2022/09/22 04:03:26;;;;;;;25.70;10.73;;;;;;;8.41;96.83;102265.72;4993240;28;20195;-42
2022/09/22 04:05:51;;;;;;;29.67;10.02;;;;;;;8.39;96.61;102270.38;5006866;28;20030;-42
2022/09/22 04:08:16;;;;;;;29.23;10.23;;;;;;;8.40;96.89;102266.72;5006469;28;20056;-42
2022/09/22 04:10:44;;;;;;;26.45;9.02;;;;;;;8.39;96.85;102267.69;4999134;28;20049;-41
2022/09/22 04:13:09;;;;;;;29.37;9.20;;;;;;;8.40;97.06;102266.72;4990669;28;20097;-41
2022/09/22 04:15:35;;;;;;;25.33;8.95;;;;;;;8.39;97.00;102265.00;5008871;28;20413;-43
2022/09/22 04:18:00;;;;;;;35.22;9.65;;;;;;;8.38;96.77;102262.44;5004075;28;20100;-42
2022/09/22 04:20:26;;;;;;;23.10;9.57;;;;;;;8.37;96.69;102261.56;4992615;28;20022;-41
2022/09/22 04:22:51;;;;;;;35.00;10.38;;;;;;;8.36;97.00;102265.25;4995390;28;20091;-42
2022/09/22 04:25:17;;;;;;;26.70;10.15;;;;;;;8.33;96.57;102254.78;5003930;28;20279;-42
2022/09/22 04:27:42;;;;;;;24.85;9.45;;;;;;;8.33;96.73;102261.00;4991173;28;20034;-42
2022/09/22 04:30:08;;;;;;;24.90;9.23;;;;;;;8.30;96.26;102257.72;4992259;28;20026;-42
2022/09/22 04:32:34;;;;;;;28.05;9.65;;;;;;;8.26;96.25;102257.13;4991421;28;20030;-42
2022/09/22 04:34:59;;;;;;;27.08;9.85;;;;;;;8.26;96.15;102261.66;4994526;28;20146;-42
2022/09/22 04:37:24;;;;;;;24.92;8.90;;;;;;;8.25;96.21;102254.59;4989405;28;20117;-42
2022/09/22 04:39:52;;;;;;;29.85;9.25;;;;;;;8.24;96.05;102251.06;4988455;28;20042;-43
2022/09/22 04:42:18;;;;;;;;;;;;;;;8.23;96.28;102251.19;4990253;28;20026;-43
2022/09/22 04:44:44;;;;;;;30.58;9.82;;;;;;;8.22;96.44;102254.88;5000369;28;19980;-42
2022/09/22 04:47:10;;;;;;;28.15;11.70;;;;;;;8.21;96.83;102251.31;4999079;28;20034;-41
2022/09/22 04:49:35;;;;;;;23.63;9.30;;;;;;;8.22;96.83;102252.19;4988168;28;20037;-42
2022/09/22 04:52:01;;;;;;;40.47;11.20;;;;;;;8.24;97.29;102250.19;4970840;28;20263;-42
2022/09/22 04:54:26;;;;;;;30.73;10.10;;;;;;;8.20;97.22;102251.47;4999921;28;20034;-43
2022/09/22 04:56:52;;;;;;;28.90;11.20;;;;;;;8.21;97.20;102247.78;4989814;28;20393;-42
2022/09/22 04:59:17;;;;;;;29.58;11.63;;;;;;;8.21;97.25;102247.78;5005645;28;20800;-41
2022/09/22 05:01:42;;;;;;;38.97;12.32;;;;;;;8.20;97.29;102251.47;4991236;28;20169;-42
2022/09/22 05:04:08;;;;;;;44.25;12.43;;;;;;;8.17;97.11;102249.03;4991433;28;20390;-42
2022/09/22 05:06:34;;;;;;;47.33;12.30;;;;;;;8.14;97.13;102251.00;4974136;28;20029;-43
2022/09/22 05:09:01;;;;;;;37.22;12.40;;;;;;;8.14;97.26;102245.63;4998578;28;20038;-42
2022/09/22 05:11:29;;;;;;;30.45;12.50;;;;;;;8.14;97.32;102250.16;4992456;28;20507;-42
2022/09/22 05:13:57;;;;;;;36.00;11.70;;;;;;;8.11;97.02;102259.31;5003664;28;20014;-42
2022/09/22 05:16:23;;;;;;;39.08;11.65;;;;;;;8.12;97.33;102247.59;4999317;28;20049;-43
2022/09/22 05:18:49;;;;;;;27.17;12.10;;;;;;;8.11;97.15;102245.06;5003307;28;20034;-43
2022/09/22 05:21:16;;;;;;;28.33;12.00;;;;;;;8.11;97.04;102250.44;5003092;28;20148;-41
2022/09/22 05:23:42;;;;;;;40.70;13.93;;;;;;;8.12;97.41;102252.13;5003215;28;20484;-43
2022/09/22 05:26:07;;;;;;;42.95;13.50;;;;;;;8.10;97.17;102249.56;5002639;28;20042;-43
2022/09/22 05:28:32;;;;;;;40.70;13.90;;;;;;;8.13;97.28;102260.00;4984811;28;20045;-43
2022/09/22 05:30:58;;;;;;;32.50;13.25;;;;;;;8.13;97.59;102259.16;4998994;28;20121;-43
2022/09/22 05:33:23;;;;;;;38.50;14.73;;;;;;;8.13;97.49;102260.00;4999908;28;20117;-42
2022/09/22 05:35:48;;;;;;;36.65;14.43;;;;;;;8.14;97.38;102256.38;4965417;28;20061;-43
2022/09/22 05:38:14;;;;;;;39.25;14.60;;;;;;;8.15;97.95;102251.84;4985895;28;20388;-42
2022/09/22 05:40:39;;;;;;;41.17;15.05;;;;;;;8.16;97.62;102252.69;5003628;28;20034;-43
2022/09/22 05:43:05;;;;;;;41.72;15.63;;;;;;;8.19;97.43;102258.66;4995797;28;20034;-43
2022/09/22 05:45:30;;;;;;;33.25;14.85;;;;;;;8.21;97.45;102251.31;4999477;28;20049;-43
2022/09/22 05:47:55;;;;;;;48.17;18.55;;;;;;;8.22;97.42;102262.91;5007958;28;20030;-43
2022/09/22 05:50:22;;;;;;;43.92;16.90;;;;;;;8.25;97.49;102262.66;5012457;28;20134;-42
2022/09/22 05:52:48;;;;;;;147.43;22.90;;;;;;;8.25;97.35;102265.31;5008693;28;20038;-42
2022/09/22 05:55:14;;;;;;;100.47;21.08;;;;;;;8.30;97.17;102252.38;4991828;28;20025;-42
2022/09/22 05:57:39;;;;;;;56.88;20.05;;;;;;;8.33;97.44;102262.81;4999876;28;20034;-42
2022/09/22 06:00:06;;;;;;;85.13;20.55;;;;;;;8.39;97.79;102258.75;5007328;28;20025;-42
2022/09/22 06:02:32;;;;;;;50.10;18.65;;;;;;;8.45;98.37;102259.13;4994385;28;20037;-42
2022/09/22 06:04:57;;;;;;;59.65;18.65;;;;;;;8.48;98.47;102261.53;4980834;28;20081;-42
2022/09/22 06:07:23;;;;;;;62.22;20.55;;;;;;;8.52;97.58;102254.91;5002982;28;20515;-42
2022/09/22 06:09:48;;;;;;;50.35;19.20;;;;;;;8.61;97.54;102257.75;5005002;28;20505;-42
2022/09/22 06:12:14;;;;;;;52.13;19.58;;;;;;;8.68;97.82;102262.47;4984914;28;20098;-44
2022/09/22 06:14:39;;;;;;;51.72;18.98;;;;;;;8.71;97.33;102264.88;5003640;28;20264;-42
2022/09/22 06:17:09;;;;;;;61.85;19.73;;;;;;;8.83;97.53;102257.59;5000269;28;20069;-43
2022/09/22 06:19:34;;;;;;;53.35;19.48;;;;;;;8.94;97.73;102259.31;4998410;28;20030;-43
2022/09/22 06:22:01;;;;;;;52.53;18.92;;;;;;;9.02;97.39;102263.00;5003767;28;20559;-43
2022/09/22 06:24:27;;;;;;;62.28;21.20;;;;;;;9.18;97.20;102253.59;5007796;28;20026;-43
2022/09/22 06:26:52;;;;;;;56.80;21.05;;;;;;;9.32;97.10;102249.63;5004836;28;20029;-42
2022/09/22 06:29:18;;;;;;;53.97;20.48;;;;;;;9.49;96.91;102256.19;5005708;28;20433;-42
2022/09/22 06:31:44;;;;;;;52.53;21.00;;;;;;;9.57;96.56;102249.09;5004922;28;20038;-43
2022/09/22 06:34:10;;;;;;;75.43;22.52;;;;;;;9.66;96.51;102247.41;5008354;28;20045;-43
2022/09/22 06:36:36;;;;;;;83.88;24.63;;;;;;;9.77;95.91;102252.66;4990071;28;20029;-42
2022/09/22 06:39:01;;;;;;;77.80;25.38;;;;;;;9.84;95.53;102253.75;4990367;28;20518;-43
2022/09/22 06:41:27;;;;;;;83.15;25.50;;;;;;;9.97;95.46;102252.63;4987768;28;20044;-43
2022/09/22 06:43:56;;;;;;;76.97;25.55;;;;;;;10.07;95.06;102256.16;4970963;28;20033;-43
2022/09/22 06:46:25;;;;;;;;;;;;;;;10.19;94.56;102246.94;5005867;28;20149;-42
2022/09/22 06:48:56;;;;;;;64.43;25.45;;;;;;;10.33;94.45;102251.03;5001497;28;19956;-42
2022/09/22 06:51:24;;;;;;;85.45;29.10;;;;;;;10.50;94.51;102241.34;5002763;28;20121;-42
2022/09/22 06:53:50;;;;;;;70.80;28.98;;;;;;;10.61;93.85;102241.19;5009104;28;20034;-42
2022/09/22 06:56:18;;;;;;;79.63;30.73;;;;;;;10.72;92.94;102246.38;5008329;28;20022;-42
2022/09/22 06:58:44;;;;;;;85.28;30.67;;;;;;;10.98;92.41;102240.28;5009088;28;20473;-41
2022/09/22 07:01:09;;;;;;;69.75;31.55;;;;;;;11.04;90.52;102242.38;5004877;28;20108;-43
2022/09/22 07:03:37;;;;;;;76.78;31.77;;;;;;;11.15;90.31;102244.84;5009351;28;20030;-41
2022/09/22 07:06:02;;;;;;;71.07;29.80;;;;;;;11.26;89.14;102242.94;5011529;28;20037;-41
2022/09/22 07:08:31;;;;;;;68.65;30.17;;;;;;;11.44;88.20;102246.50;5011431;28;20355;-41
2022/09/22 07:11:07;;;;;;;67.38;30.13;;;;;;;11.70;87.29;102243.06;4993734;28;20044;-43
2022/09/22 07:13:36;;;;;;;72.13;30.63;;;;;;;12.31;88.09;102231.38;5010795;28;20029;-43
2022/09/22 07:16:09;;;;;;;57.83;27.70;;;;;;;13.55;87.04;102244.38;5011076;28;20026;-40
2022/09/22 07:18:39;;;;;;;63.72;26.27;;;;;;;14.78;78.11;102247.81;5005131;28;20026;-42
2022/09/22 07:21:07;;;;;;;58.83;26.20;;;;;;;15.27;71.07;102242.16;4978959;28;20101;-43
2022/09/22 07:23:35;;;;;;;62.35;26.25;;;;;;;15.81;68.92;102246.69;5012706;28;20037;-42
2022/09/22 07:26:21;;;;;;;55.03;24.02;;;;;;;16.52;64.22;102238.22;5007878;28;20022;-42
2022/09/22 07:28:50;;;;;;;52.20;23.80;;;;;;;16.71;63.08;102240.34;4993923;28;20049;-43
2022/09/22 07:31:16;;;;;;;46.65;23.92;;;;;;;17.50;59.51;102236.91;5001145;28;20022;-41
2022/09/22 07:33:43;;;;;;;47.78;22.98;;;;;;;17.84;58.79;102244.41;5010371;28;20064;-43
2022/09/22 07:36:11;;;;;;;40.70;23.15;;;;;;;17.37;58.41;102243.06;5011117;28;20030;-42
2022/09/22 07:38:38;;;;;;;43.22;22.73;;;;;;;17.87;56.63;102246.72;5010300;28;20037;-42
2022/09/22 07:41:06;;;;;;;45.95;23.48;;;;;;;17.63;55.90;102244.38;4993929;28;20036;-42
2022/09/22 07:43:32;;;;;;;43.28;22.15;;;;;;;17.28;56.60;102247.78;5008059;28;20366;-43
2022/09/22 07:45:57;;;;;;;36.35;21.42;;;;;;;17.45;56.98;102237.50;5006423;28;20054;-43
2022/09/22 07:48:45;;;;;;;38.45;21.38;;;;;;;18.56;56.13;102232.34;5006620;28;20064;-43
2022/09/22 07:51:20;;;;;;;39.55;21.38;;;;;;;18.99;52.34;102237.63;4998112;28;20504;-43
2022/09/22 07:53:52;;;;;;;41.40;22.33;;;;;;;19.91;51.23;102241.63;4973120;28;20346;-42
2022/09/22 07:56:20;;;;;;;38.50;20.60;;;;;;;20.34;50.51;102238.41;5005862;28;20029;-43
2022/09/22 07:58:50;;;;;;;34.88;20.17;;;;;;;19.96;50.94;102238.25;5005650;28;20499;-43
2022/09/22 08:01:16;;;;;;;42.20;21.42;;;;;;;20.53;48.75;102233.13;5005399;28;20034;-42
2022/09/22 08:03:42;;;;;;;37.07;20.10;;;;;;;20.79;49.42;102235.78;5007929;28;20514;-43
2022/09/22 08:06:10;;;;;;;36.00;19.80;;;;;;;21.40;46.96;102239.09;5008876;28;20030;-42
2022/09/22 08:09:02;;;;;;;33.95;17.67;;;;;;;22.41;45.01;102231.75;5007609;28;20125;-43
2022/09/22 08:11:28;;;;;;;30.73;16.58;;;;;;;22.01;43.08;102237.59;5002517;28;20096;-41
2022/09/22 08:13:58;;;;;;;33.75;17.48;;;;;;;21.26;44.30;102227.38;4998303;28;20496;-42
2022/09/22 08:16:29;;;;;;;31.05;17.85;;;;;;;20.24;45.35;102228.97;5008811;28;20120;-42
2022/09/22 08:18:56;;;;;;;35.50;17.10;;;;;;;20.56;47.83;102232.72;5006536;28;20076;-42
2022/09/22 08:21:22;;;;;;;34.83;15.93;;;;;;;21.78;44.50;102225.38;5002228;28;20084;-41
2022/09/22 08:23:51;;;;;;;32.17;16.73;;;;;;;22.02;44.67;102231.91;5006454;28;20100;-42
2022/09/22 08:26:16;;;;;;;26.88;16.27;;;;;;;22.42;43.97;102226.06;5000038;28;20121;-42
2022/09/22 08:28:41;;;;;;;36.50;16.27;;;;;;;22.27;43.68;102218.19;5011498;28;20105;-40
2022/09/22 08:31:11;;;;;;;38.85;16.85;;;;;;;22.67;41.80;102222.38;5006559;28;20061;-41
2022/09/22 08:33:36;;;;;;;33.15;15.77;;;;;;;21.95;42.57;102220.16;5007990;28;20026;-41
2022/09/22 08:36:02;;;;;;;28.42;16.02;;;;;;;22.32;42.12;102220.25;5010084;28;20372;-43
2022/09/22 08:38:28;;;;;;;23.05;15.18;;;;;;;22.26;42.85;102215.69;5009345;28;20061;-42
2022/09/22 08:40:59;;;;;;;30.48;15.25;;;;;;;22.13;42.90;102211.97;5002907;28;20026;-43
2022/09/22 08:43:26;;;;;;;30.80;14.45;;;;;;;21.88;42.90;102222.97;5022006;28;20067;-42
2022/09/22 08:45:52;;;;;;;21.10;14.00;;;;;;;22.73;41.59;102214.09;5020080;28;20489;-43
2022/09/22 08:53:55;;;;;;;27.20;13.50;;;;;;;22.28;42.39;102208.06;4987927;28;20053;-42
2022/09/22 08:56:29;;;;;;;21.92;12.05;;;;;;;23.06;39.37;102212.00;4997096;28;20022;-43
2022/09/22 08:59:06;;;;;;;28.08;13.75;;;;;;;22.50;39.93;102212.03;5008299;28;20030;-42
2022/09/22 09:01:34;;;;;;;21.40;11.73;;;;;;;22.33;40.06;102205.50;4987813;28;20389;-42
2022/09/22 09:04:33;;;;;;;21.10;12.32;;;;;;;22.49;40.49;102209.53;5010171;28;20640;-42
2022/09/22 09:07:07;;;;;;;23.02;11.60;;;;;;;22.23;39.74;102216.13;4994420;28;20141;-41
2022/09/22 09:10:03;;;;;;;24.88;11.43;;;;;;;21.19;42.36;102215.59;4992742;28;20076;-43
2022/09/22 09:12:49;;;;;;;26.48;11.38;;;;;;;21.43;42.07;102216.75;5010188;28;20029;-42
2022/09/22 09:15:47;;;;;;;24.75;11.13;;;;;;;21.24;41.30;102221.28;4992626;28;20088;-42
2022/09/22 09:18:14;;;;;;;30.05;11.38;;;;;;;19.94;45.42;102221.22;5009045;28;20470;-38
2022/09/22 09:20:46;;;;;;;;;;;;;;;19.69;45.60;102221.81;4988833;28;20040;-40
2022/09/22 09:23:16;;;;;;;24.70;12.25;;;;;;;19.40;46.46;102223.03;4975608;28;19909;-43
2022/09/22 09:25:42;;;;;;;25.95;10.68;;;;;;;19.68;47.56;102214.69;4982102;28;20137;-42
2022/09/22 09:28:36;;;;;;;22.30;10.90;;;;;;;19.82;47.34;102209.25;5011989;28;20026;-42
2022/09/22 09:31:08;;;;;;;23.90;11.85;;;;;;;19.26;46.86;102216.69;5011938;28;20497;-42
2022/09/22 09:33:43;;;;;;;22.80;10.68;;;;;;;18.85;49.41;102216.75;4997716;28;20029;-43
2022/09/22 09:36:14;;;;;;;22.05;11.60;;;;;;;18.89;49.99;102215.31;4980608;28;20025;-43
2022/09/22 09:38:51;;;;;;;18.17;10.85;;;;;;;18.88;48.88;102218.25;4994780;28;20034;-41
2022/09/22 09:41:21;;;;;;;24.00;12.02;;;;;;;18.10;49.81;102223.88;4995224;28;20342;-43
2022/09/22 09:43:47;;;;;;;31.35;11.57;;;;;;;17.91;49.63;102219.94;4988430;28;20036;-42
2022/09/22 09:46:40;;;;;;;25.58;10.93;;;;;;;17.88;49.45;102217.63;5010049;28;20448;-42
2022/09/22 09:49:10;;;;;;;22.77;10.07;;;;;;;17.73;50.44;102215.78;5007172;28;20484;-42
2022/09/22 09:51:37;;;;;;;20.63;9.65;;;;;;;17.70;49.91;102215.34;5004070;28;20477;-41
2022/09/22 09:54:05;;;;;;;;;;;;;;;17.55;48.34;102218.97;4991026;28;20026;-40
2022/09/22 09:56:31;;;;;;;19.75;9.40;;;;;;;17.82;49.61;102207.50;4993455;28;19917;-43
2022/09/22 10:01:53;;;;;;;21.75;9.20;;;;;;;18.02;48.59;102202.22;5008237;28;20139;-42
2022/09/22 10:04:39;;;;;;;19.60;9.15;;;;;;;17.84;49.10;102194.53;5000429;28;20490;-42
2022/09/22 10:07:14;;;;;;;21.63;8.75;;;;;;;18.04;49.57;102195.53;4988807;28;20409;-42
2022/09/22 10:09:40;;;;;;;14.98;6.80;;;;;;;17.78;48.92;102196.13;4995033;28;20481;-42
2022/09/22 10:12:07;;;;;;;14.82;5.72;;;;;;;17.89;45.86;102194.78;5011556;28;20103;-41
2022/09/22 10:14:33;;;;;;;15.75;6.65;;;;;;;17.70;47.19;102188.94;4991719;28;20116;-43
2022/09/22 10:16:59;;;;;;;15.98;6.03;;;;;;;17.66;46.51;102190.38;5022155;28;20022;-43
2022/09/22 10:19:28;;;;;;;14.68;6.72;;;;;;;17.36;47.07;102183.41;5010607;28;20037;-43
2022/09/22 10:22:14;;;;;;;14.65;6.45;;;;;;;17.28;47.89;102179.75;5011506;28;20022;-43
2022/09/22 10:24:40;;;;;;;18.02;8.55;;;;;;;17.31;49.46;102178.53;5012665;28;20038;-43
2022/09/22 10:27:05;;;;;;;19.90;7.50;;;;;;;17.62;49.80;102185.53;4995595;28;20022;-43
2022/09/22 10:29:31;;;;;;;17.75;8.68;;;;;;;17.67;48.64;102175.72;4993534;28;20469;-43
2022/09/22 10:32:02;;;;;;;11.15;5.90;;;;;;;17.69;47.12;102173.66;4978611;28;20160;-42
2022/09/22 10:34:34;;;;;;;18.60;6.07;;;;;;;17.92;47.95;102167.16;5009729;28;20022;-42
2022/09/22 10:37:03;;;;;;;15.68;6.78;;;;;;;18.11;48.42;102169.16;5011407;28;20038;-42
2022/09/22 10:39:44;;;;;;;15.75;8.35;;;;;;;18.13;48.17;102167.09;5008504;28;20029;-41
2022/09/22 10:42:24;;;;;;;15.00;7.50;;;;;;;18.26;47.98;102162.75;4987231;28;20048;-41
2022/09/22 10:44:50;;;;;;;18.30;7.03;;;;;;;18.53;45.78;102161.84;5008847;28;20497;-41
2022/09/22 10:47:29;;;;;;;21.67;6.80;;;;;;;18.37;48.58;102156.75;5007133;28;20053;-42
2022/09/22 10:50:27;;;;;;;11.68;5.25;;;;;;;18.32;46.68;102148.31;4988083;28;20041;-42
2022/09/22 10:53:11;;;;;;;;;;;;;;;18.35;47.35;102147.91;4992289;28;20026;-41
2022/09/22 10:55:45;;;;;;;11.05;4.15;;;;;;;18.10;45.28;102156.59;5004808;28;19930;-42
2022/09/22 10:58:35;;;;;;;11.00;4.65;;;;;;;18.13;46.48;102150.72;4991740;28;20478;-43
2022/09/22 11:01:13;;;;;;;8.75;4.22;;;;;;;18.12;45.86;102151.78;4972739;28;20029;-43
2022/09/22 11:03:57;;;;;;;15.65;4.65;;;;;;;17.88;45.22;102152.25;4972230;28;20074;-42
2022/09/22 11:12:18;;;;;;;9.00;3.50;;;;;;;18.53;46.64;102145.47;5007998;28;20129;-42
2022/09/22 11:14:52;;;;;;;13.43;3.35;;;;;;;18.73;44.22;102139.28;5009176;28;20104;-43
2022/09/22 11:18:08;;;;;;;7.75;3.58;;;;;;;18.93;43.59;102140.22;5004867;28;20113;-43
2022/09/22 11:20:43;;;;;;;7.63;3.50;;;;;;;19.22;43.01;102139.03;4993393;28;20053;-43
2022/09/22 11:23:20;;;;;;;17.20;3.80;;;;;;;19.44;43.91;102131.47;5011967;28;20080;-43
2022/09/22 11:25:49;;;;;;;;;;;;;;;19.73;42.78;102129.41;5005009;28;20043;-41
2022/09/22 11:28:30;;;;;;;8.23;3.42;;;;;;;20.31;40.36;102121.28;5008084;28;19914;-43
2022/09/22 11:30:57;;;;;;;15.32;3.83;;;;;;;20.74;40.44;102130.81;4978329;28;20516;-42
2022/09/22 11:33:30;;;;;;;10.25;3.65;;;;;;;20.63;39.50;102124.13;4994172;28;20029;-43
2022/09/22 11:36:02;;;;;;;10.27;3.72;;;;;;;21.36;38.74;102126.41;4994284;28;20033;-43
2022/09/22 11:38:48;;;;;;;11.52;4.28;;;;;;;21.50;38.25;102118.94;4993419;28;20033;-42
2022/09/22 11:41:20;;;;;;;9.18;3.95;;;;;;;21.65;38.61;102116.72;5006909;28;20504;-42
2022/09/22 11:44:19;;;;;;;9.57;3.83;;;;;;;21.98;36.45;102115.53;4991065;28;20030;-42
2022/09/22 11:47:18;;;;;;;15.52;4.45;;;;;;;22.21;37.16;102116.81;5011362;28;20069;-41
2022/09/22 11:50:08;;;;;;;8.13;3.95;;;;;;;22.22;37.07;102112.97;5007222;28;20358;-40